Time;durP1;ratioP1;P1;durP2;ratioP2;P2;SDS_P1;SDS_P2;PMS_P1;PMS_P2;Temp;Humidity;BMP_temperature;BMP_pressure;BME280_temperature;BME280_humidity;BME280_pressure;Samples;Min_cycle;Max_cycle;Signal;HPM_P1;HPM_P2
2023/12/28 00:00:47;;;;;;;0.00;0.00;;;13.00;75.60;;;;;;5088042;28;20182;-41
2023/12/28 00:03:18;;;;;;;0.00;0.00;;;13.00;75.60;;;;;;5071225;28;20209;-41
2023/12/28 00:05:45;;;;;;;0.00;0.00;;;13.00;75.40;;;;;;5086504;28;20257;-40
2023/12/28 00:08:15;;;;;;;0.00;0.00;;;13.00;75.50;;;;;;5087807;28;20252;-41
2023/12/28 00:10:42;;;;;;;0.00;0.00;;;13.00;75.60;;;;;;5069984;28;20210;-41
2023/12/28 00:13:12;;;;;;;0.00;0.00;;;13.00;75.50;;;;;;5088054;28;20202;-41
2023/12/28 00:15:39;;;;;;;0.00;0.00;;;13.00;75.60;;;;;;5086402;28;20235;-42
2023/12/28 00:18:06;;;;;;;0.00;0.00;;;13.00;75.60;;;;;;5086246;28;20293;-39
2023/12/28 00:20:34;;;;;;;0.00;0.00;;;13.00;75.40;;;;;;5087668;28;20195;-41
2023/12/28 00:23:05;;;;;;;0.00;0.00;;;13.00;75.40;;;;;;5085852;28;20222;-41
2023/12/28 00:25:32;;;;;;;0.00;0.00;;;13.00;75.40;;;;;;5086283;28;20955;-41
2023/12/28 00:27:59;;;;;;;0.00;0.00;;;13.00;75.70;;;;;;5086477;28;20199;-41
2023/12/28 00:30:29;;;;;;;0.00;0.00;;;13.00;76.40;;;;;;5086674;28;20222;-41
2023/12/28 00:32:59;;;;;;;0.00;0.00;;;13.10;76.20;;;;;;5087277;28;20199;-40
2023/12/28 00:35:29;;;;;;;0.00;0.00;;;13.00;76.30;;;;;;5084931;28;20209;-40
2023/12/28 00:37:57;;;;;;;0.00;0.00;;;13.10;75.60;;;;;;5087673;28;20195;-41
2023/12/28 00:40:27;;;;;;;0.00;0.00;;;13.10;75.60;;;;;;5086208;28;20584;-41
2023/12/28 00:42:54;;;;;;;0.00;0.00;;;13.10;75.40;;;;;;5075938;28;20214;-42
2023/12/28 00:45:27;;;;;;;0.00;0.00;;;13.10;75.50;;;;;;5068524;28;20196;-42
2023/12/28 00:47:56;;;;;;;0.00;0.00;;;13.10;75.60;;;;;;5068384;28;20227;-43
2023/12/28 00:50:31;;;;;;;0.00;0.00;;;13.10;75.50;;;;;;5067925;28;20626;-43
2023/12/28 00:52:59;;;;;;;0.00;0.00;;;13.10;75.40;;;;;;5069604;28;20211;-44
2023/12/28 00:55:28;;;;;;;0.00;0.00;;;13.10;75.40;;;;;;5068572;28;20191;-41
2023/12/28 00:57:58;;;;;;;0.00;0.00;;;13.10;75.40;;;;;;5067400;28;20753;-43
2023/12/28 01:00:30;;;;;;;0.00;0.00;;;13.10;75.60;;;;;;5065659;28;20199;-41
2023/12/28 01:02:57;;;;;;;0.00;0.00;;;13.10;75.50;;;;;;5065268;28;20589;-37
2023/12/28 01:05:28;;;;;;;0.00;0.00;;;13.10;75.50;;;;;;5068593;28;20239;-44
2023/12/28 01:07:58;;;;;;;0.00;0.00;;;13.10;75.50;;;;;;5063933;28;20232;-41
2023/12/28 01:10:30;;;;;;;0.00;0.00;;;13.10;75.60;;;;;;5063172;28;20221;-41
2023/12/28 01:13:00;;;;;;;0.00;0.00;;;13.10;75.60;;;;;;5064685;28;20214;-41
2023/12/28 01:15:31;;;;;;;0.00;0.00;;;13.10;75.60;;;;;;5063129;28;20621;-41
2023/12/28 01:18:01;;;;;;;0.00;0.00;;;13.10;75.60;;;;;;5046243;28;20227;-41
2023/12/28 01:20:32;;;;;;;0.00;0.00;;;13.10;75.50;;;;;;5063306;28;20215;-41
2023/12/28 01:23:02;;;;;;;0.00;0.00;;;13.10;75.50;;;;;;5064287;28;20255;-41
2023/12/28 01:25:29;;;;;;;0.00;0.00;;;13.10;75.60;;;;;;5063251;28;20222;-42
2023/12/28 01:27:56;;;;;;;0.00;0.00;;;13.10;75.50;;;;;;5064512;28;20219;-41
2023/12/28 01:30:26;;;;;;;0.00;0.00;;;13.10;75.50;;;;;;5063446;28;20207;-42
2023/12/28 01:33:01;;;;;;;0.00;0.00;;;13.10;75.40;;;;;;5064212;28;20714;-41
2023/12/28 01:35:28;;;;;;;0.00;0.00;;;13.10;75.40;;;;;;5067347;28;20203;-41
2023/12/28 01:37:57;;;;;;;0.00;0.00;;;13.10;75.40;;;;;;5063046;28;20305;-42
2023/12/28 01:40:24;;;;;;;0.00;0.00;;;13.10;75.60;;;;;;5070907;28;20210;-41
2023/12/28 01:42:52;;;;;;;0.00;0.00;;;13.10;75.30;;;;;;5072285;28;20268;-42
2023/12/28 01:45:19;;;;;;;0.00;0.00;;;13.10;75.40;;;;;;5070415;28;20218;-40
2023/12/28 01:47:51;;;;;;;0.00;0.00;;;13.10;75.50;;;;;;5069594;28;20220;-41
2023/12/28 01:50:20;;;;;;;0.00;0.00;;;13.10;75.40;;;;;;5072007;28;20850;-41
2023/12/28 01:52:50;;;;;;;0.00;0.00;;;13.00;75.30;;;;;;5071515;28;20207;-40
2023/12/28 01:55:21;;;;;;;0.00;0.00;;;13.00;75.30;;;;;;5071922;28;20217;-41
2023/12/28 01:57:51;;;;;;;0.00;0.00;;;13.00;75.30;;;;;;5068964;28;20661;-41
2023/12/28 02:00:21;;;;;;;0.00;0.00;;;13.00;75.40;;;;;;5071488;28;20289;-41
2023/12/28 02:02:51;;;;;;;0.00;0.00;;;13.00;75.40;;;;;;5068169;28;20302;-40
2023/12/28 02:05:19;;;;;;;0.00;0.00;;;13.00;75.30;;;;;;5070136;28;20239;-41
2023/12/28 02:07:49;;;;;;;0.00;0.00;;;12.90;75.20;;;;;;5068594;28;20211;-41
2023/12/28 02:10:16;;;;;;;0.00;0.00;;;12.90;75.40;;;;;;5070159;28;20191;-40
2023/12/28 02:12:43;;;;;;;0.00;0.00;;;13.00;75.30;;;;;;5070041;28;20212;-42
2023/12/28 02:15:12;;;;;;;0.00;0.00;;;12.90;75.30;;;;;;5068300;28;20191;-41
2023/12/28 02:17:50;;;;;;;0.00;0.00;;;12.90;75.30;;;;;;5068260;28;20562;-41
2023/12/28 02:20:19;;;;;;;0.00;0.00;;;12.90;75.30;;;;;;5073991;28;20210;-41
2023/12/28 02:22:52;;;;;;;0.00;0.00;;;12.90;75.40;;;;;;5078515;28;20210;-42
2023/12/28 02:25:19;;;;;;;0.00;0.00;;;12.90;75.40;;;;;;5069617;28;20207;-41
2023/12/28 02:27:49;;;;;;;0.00;0.00;;;12.90;75.30;;;;;;5068149;28;20219;-40
2023/12/28 02:30:22;;;;;;;0.00;0.00;;;12.80;75.20;;;;;;5068435;28;20207;-41
2023/12/28 02:32:58;;;;;;;0.00;0.00;;;12.80;75.20;;;;;;5077829;28;20230;-42
2023/12/28 02:35:32;;;;;;;0.00;0.00;;;12.90;75.30;;;;;;5091588;28;20279;-41
2023/12/28 02:38:07;;;;;;;0.00;0.00;;;12.80;75.40;;;;;;5091384;28;20203;-41
2023/12/28 02:40:43;;;;;;;0.00;0.00;;;12.80;75.30;;;;;;5088785;28;20224;-42
2023/12/28 02:43:13;;;;;;;0.00;0.00;;;12.80;75.20;;;;;;5091219;28;20179;-41
2023/12/28 02:45:41;;;;;;;0.00;0.00;;;12.80;75.30;;;;;;5090521;28;20293;-41
2023/12/28 02:48:13;;;;;;;0.00;0.00;;;12.80;75.40;;;;;;5088412;28;20284;-41
2023/12/28 02:50:40;;;;;;;0.00;0.00;;;12.80;75.30;;;;;;5089662;28;20266;-42
2023/12/28 02:53:11;;;;;;;0.00;0.00;;;12.80;75.20;;;;;;5089580;28;20199;-41
2023/12/28 02:55:40;;;;;;;0.00;0.00;;;12.80;75.30;;;;;;5069793;28;20212;-41
2023/12/28 02:58:10;;;;;;;0.00;0.00;;;12.80;75.30;;;;;;5087205;28;20199;-40
2023/12/28 03:00:39;;;;;;;0.00;0.00;;;12.80;75.40;;;;;;5086279;28;20211;-41
2023/12/28 03:03:09;;;;;;;0.00;0.00;;;12.80;75.40;;;;;;5068459;28;20246;-40
2023/12/28 03:05:38;;;;;;;0.00;0.00;;;12.80;76.20;;;;;;5087351;28;20730;-41
2023/12/28 03:08:05;;;;;;;0.00;0.00;;;12.80;75.40;;;;;;5087136;28;20685;-41
2023/12/28 03:10:37;;;;;;;0.00;0.00;;;12.80;75.30;;;;;;5086021;28;20741;-41
2023/12/28 03:13:05;;;;;;;0.00;0.00;;;12.80;75.20;;;;;;5085837;28;20194;-41
2023/12/28 03:15:35;;;;;;;0.00;0.00;;;12.80;75.20;;;;;;5087072;28;20211;-41
2023/12/28 03:18:05;;;;;;;0.00;0.00;;;12.70;75.30;;;;;;5086267;28;20207;-41
2023/12/28 03:20:34;;;;;;;0.00;0.00;;;12.80;75.40;;;;;;5069517;28;20536;-41
2023/12/28 03:23:01;;;;;;;0.00;0.00;;;12.80;75.40;;;;;;5087555;28;20260;-40
2023/12/28 03:25:28;;;;;;;0.00;0.00;;;12.70;75.20;;;;;;5085492;28;20305;-41
2023/12/28 03:27:58;;;;;;;0.00;0.00;;;12.80;75.30;;;;;;5085857;28;20218;-41
2023/12/28 03:30:28;;;;;;;0.00;0.00;;;12.80;75.40;;;;;;5089163;28;20902;-42
2023/12/28 03:32:58;;;;;;;0.00;0.00;;;12.80;75.40;;;;;;5071634;28;20209;-41
2023/12/28 03:35:27;;;;;;;0.00;0.00;;;12.80;75.40;;;;;;5089147;28;20213;-40
2023/12/28 03:37:57;;;;;;;0.00;0.00;;;12.80;75.30;;;;;;5071935;28;20310;-43
2023/12/28 03:40:27;;;;;;;0.00;0.00;;;12.80;75.40;;;;;;5088465;28;20198;-42
2023/12/28 03:42:55;;;;;;;0.00;0.00;;;12.80;75.20;;;;;;5088042;28;20199;-40
2023/12/28 03:45:26;;;;;;;0.00;0.00;;;12.80;75.20;;;;;;5088207;28;20570;-42
2023/12/28 03:47:56;;;;;;;0.00;0.00;;;12.80;75.30;;;;;;5087432;28;20231;-42
2023/12/28 03:50:24;;;;;;;0.00;0.00;;;12.80;75.30;;;;;;5086367;28;20235;-41
2023/12/28 03:52:51;;;;;;;0.00;0.00;;;12.80;75.30;;;;;;5070144;28;20723;-42
2023/12/28 03:55:18;;;;;;;0.00;0.00;;;12.80;75.40;;;;;;5086978;28;20199;-40
2023/12/28 03:57:46;;;;;;;0.00;0.00;;;12.80;75.40;;;;;;5085717;28;20206;-41
2023/12/28 04:00:14;;;;;;;0.00;0.00;;;12.80;75.40;;;;;;5088484;28;20219;-41
2023/12/28 04:02:44;;;;;;;0.00;0.00;;;12.80;75.40;;;;;;5086172;28;20732;-40
2023/12/28 04:05:14;;;;;;;0.00;0.00;;;12.80;75.30;;;;;;5088234;28;20779;-41
2023/12/28 04:07:44;;;;;;;0.00;0.00;;;12.80;76.00;;;;;;5088189;28;20322;-40
2023/12/28 04:10:15;;;;;;;0.00;0.00;;;12.80;75.30;;;;;;5086980;28;20362;-41
2023/12/28 04:12:45;;;;;;;0.00;0.00;;;12.80;75.30;;;;;;5088244;28;20941;-42
2023/12/28 04:15:12;;;;;;;0.00;0.00;;;12.80;75.00;;;;;;5088437;28;20198;-41
2023/12/28 04:17:39;;;;;;;0.00;0.00;;;12.80;75.00;;;;;;5087434;28;20203;-42
2023/12/28 04:20:12;;;;;;;0.00;0.00;;;12.80;75.10;;;;;;5086030;28;20290;-41
2023/12/28 04:22:43;;;;;;;0.00;0.00;;;12.80;75.10;;;;;;5085420;28;20582;-42
2023/12/28 04:25:10;;;;;;;0.00;0.00;;;12.80;74.90;;;;;;5088248;28;20570;-42
2023/12/28 04:27:44;;;;;;;0.00;0.00;;;12.80;75.10;;;;;;5089230;28;20222;-41
2023/12/28 04:30:16;;;;;;;0.00;0.00;;;12.80;75.10;;;;;;5087908;28;20248;-41
2023/12/28 04:32:43;;;;;;;0.00;0.00;;;12.80;75.10;;;;;;5086876;28;20203;-41
2023/12/28 04:35:11;;;;;;;0.00;0.00;;;12.80;75.10;;;;;;5089224;28;20253;-40
2023/12/28 04:37:43;;;;;;;0.00;0.00;;;12.80;75.10;;;;;;5086250;28;20232;-42
2023/12/28 04:40:14;;;;;;;0.00;0.00;;;12.80;75.10;;;;;;5086499;28;20202;-41
2023/12/28 04:42:43;;;;;;;0.00;0.00;;;12.80;74.80;;;;;;5087969;28;20202;-42
2023/12/28 04:45:11;;;;;;;0.00;0.00;;;12.80;75.50;;;;;;5086473;28;20619;-40
2023/12/28 04:47:38;;;;;;;0.00;0.00;;;12.80;75.10;;;;;;5066485;28;20511;-42
2023/12/28 04:50:09;;;;;;;0.00;0.00;;;12.80;75.00;;;;;;5084080;28;20627;-42
2023/12/28 04:52:36;;;;;;;0.00;0.00;;;12.80;75.00;;;;;;5084068;28;20248;-41
2023/12/28 04:55:06;;;;;;;0.00;0.00;;;12.90;75.20;;;;;;5083920;28;20198;-40
2023/12/28 04:57:35;;;;;;;0.00;0.00;;;12.80;75.10;;;;;;5085721;28;20215;-40
2023/12/28 05:00:04;;;;;;;0.00;0.00;;;12.80;74.50;;;;;;5084144;28;20202;-41
2023/12/28 05:02:31;;;;;;;0.00;0.00;;;12.80;74.80;;;;;;5084977;28;20301;-41
2023/12/28 05:05:01;;;;;;;0.00;0.00;;;12.80;74.90;;;;;;5083884;28;20242;-41
2023/12/28 05:07:28;;;;;;;0.00;0.00;;;12.90;75.00;;;;;;5084008;28;20225;-41
2023/12/28 05:09:55;;;;;;;0.00;0.00;;;12.80;75.00;;;;;;5083879;28;20202;-41
2023/12/28 05:12:25;;;;;;;0.00;0.00;;;12.80;75.10;;;;;;5085471;28;20583;-41
2023/12/28 05:14:54;;;;;;;0.00;0.00;;;12.90;75.00;;;;;;5082170;28;20206;-41
2023/12/28 05:17:21;;;;;;;0.00;0.00;;;12.90;75.00;;;;;;5085477;28;20301;-41
2023/12/28 05:19:51;;;;;;;0.00;0.00;;;12.80;74.90;;;;;;5088532;28;20742;-41
2023/12/28 05:22:18;;;;;;;0.00;0.00;;;12.80;74.80;;;;;;5088577;28;20203;-41
2023/12/28 05:24:48;;;;;;;0.00;0.00;;;12.80;74.80;;;;;;5087454;28;20212;-41
2023/12/28 05:27:15;;;;;;;0.00;0.00;;;12.80;74.90;;;;;;5087039;28;20214;-41
2023/12/28 05:29:48;;;;;;;0.00;0.00;;;12.80;74.80;;;;;;5070698;28;20214;-41
2023/12/28 05:32:18;;;;;;;0.00;0.00;;;12.80;75.00;;;;;;5070825;28;20187;-42
2023/12/28 05:34:49;;;;;;;0.00;0.00;;;12.80;74.80;;;;;;5087275;28;20199;-41
2023/12/28 05:37:16;;;;;;;0.00;0.00;;;12.80;74.80;;;;;;5088525;28;20226;-42
2023/12/28 05:39:44;;;;;;;0.00;0.00;;;12.80;74.80;;;;;;5088608;28;20215;-42
2023/12/28 05:42:11;;;;;;;0.00;0.00;;;12.80;74.70;;;;;;5085358;28;20202;-42
2023/12/28 05:44:38;;;;;;;0.00;0.00;;;12.80;74.80;;;;;;5083932;28;20252;-41
2023/12/28 05:47:08;;;;;;;0.00;0.00;;;12.80;74.80;;;;;;5084504;28;20210;-41
2023/12/28 05:49:39;;;;;;;0.00;0.00;;;12.80;75.00;;;;;;5084700;28;20233;-41
2023/12/28 05:52:09;;;;;;;0.00;0.00;;;12.80;74.70;;;;;;5083670;28;20692;-42
2023/12/28 05:54:39;;;;;;;0.00;0.00;;;12.80;74.80;;;;;;5085530;28;20222;-41
2023/12/28 05:57:08;;;;;;;0.00;0.00;;;12.80;74.70;;;;;;5073089;28;20287;-40
2023/12/28 05:59:42;;;;;;;0.00;0.00;;;12.70;74.70;;;;;;5063256;28;20207;-40
2023/12/28 06:02:13;;;;;;;0.00;0.00;;;12.70;74.70;;;;;;5063653;28;20221;-41
2023/12/28 06:04:41;;;;;;;0.00;0.00;;;12.70;74.90;;;;;;5062836;28;20219;-42
2023/12/28 06:07:10;;;;;;;0.00;0.00;;;12.70;74.80;;;;;;5057511;28;20646;-42
2023/12/28 06:09:42;;;;;;;0.00;0.00;;;12.70;74.80;;;;;;5069431;28;20645;-41
2023/12/28 06:12:14;;;;;;;0.00;0.00;;;12.70;74.80;;;;;;5068006;28;20206;-41
2023/12/28 06:14:42;;;;;;;0.00;0.00;;;12.70;74.90;;;;;;5070093;28;20256;-42
2023/12/28 06:17:12;;;;;;;0.00;0.00;;;12.70;74.90;;;;;;5078565;28;20646;-24
2023/12/28 06:19:39;;;;;;;0.00;0.00;;;12.70;74.90;;;;;;5067700;28;20202;-23
2023/12/28 06:22:11;;;;;;;0.00;0.00;;;12.70;74.90;;;;;;5070965;28;20193;-24
2023/12/28 06:24:41;;;;;;;0.00;0.00;;;12.70;74.70;;;;;;5070830;28;20207;-24
2023/12/28 06:27:16;;;;;;;0.00;0.00;;;12.70;74.60;;;;;;5068331;28;20638;-23
2023/12/28 06:29:43;;;;;;;0.00;0.00;;;12.70;74.80;;;;;;5066016;28;20286;-23
2023/12/28 06:32:12;;;;;;;0.00;0.00;;;12.70;74.90;;;;;;5080039;28;20294;-23
2023/12/28 06:34:40;;;;;;;0.00;0.00;;;12.70;75.00;;;;;;5071481;28;20211;-24
2023/12/28 06:37:07;;;;;;;0.00;0.00;;;12.70;75.00;;;;;;5069791;28;20202;-24
2023/12/28 06:39:37;;;;;;;0.00;0.00;;;12.80;74.90;;;;;;5068356;28;20203;-24
2023/12/28 06:42:04;;;;;;;0.00;0.00;;;12.80;74.80;;;;;;5068217;28;21116;-24
2023/12/28 06:44:32;;;;;;;0.00;0.00;;;12.80;74.80;;;;;;5068392;28;20207;-24
2023/12/28 06:46:59;;;;;;;0.00;0.00;;;12.70;74.70;;;;;;5067169;28;20210;-24
2023/12/28 06:49:29;;;;;;;0.00;0.00;;;12.70;74.80;;;;;;5066201;28;20587;-24
2023/12/28 06:51:58;;;;;;;0.00;0.00;;;12.70;74.80;;;;;;5066414;28;20208;-25
2023/12/28 06:54:25;;;;;;;0.00;0.00;;;12.70;74.80;;;;;;5067513;28;20278;-24
2023/12/28 06:56:52;;;;;;;0.00;0.00;;;12.70;74.90;;;;;;5067331;28;20195;-24
2023/12/28 06:59:20;;;;;;;0.00;0.00;;;12.70;74.90;;;;;;5066094;28;20195;-24
2023/12/28 07:01:49;;;;;;;0.00;0.00;;;12.70;74.70;;;;;;5068324;28;20199;-24
2023/12/28 07:04:21;;;;;;;0.00;0.00;;;12.70;74.70;;;;;;5076869;28;20209;-24
2023/12/28 07:06:50;;;;;;;0.00;0.00;;;12.70;74.70;;;;;;5081088;28;20349;-23
2023/12/28 07:09:20;;;;;;;0.00;0.00;;;12.70;74.60;;;;;;5084098;28;20251;-24
2023/12/28 07:11:52;;;;;;;0.00;0.00;;;12.70;74.70;;;;;;5080073;28;20576;-24
2023/12/28 07:14:19;;;;;;;0.00;0.00;;;12.70;74.60;;;;;;5081259;28;20202;-24
2023/12/28 07:16:46;;;;;;;0.00;0.00;;;12.70;74.60;;;;;;5082995;28;20289;-24
2023/12/28 07:19:16;;;;;;;0.00;0.00;;;12.70;74.60;;;;;;5082986;28;20227;-24
2023/12/28 07:21:43;;;;;;;0.00;0.00;;;12.70;74.50;;;;;;5074707;28;20195;-24
2023/12/28 07:24:16;;;;;;;0.00;0.00;;;12.60;74.50;;;;;;5075511;28;20286;-24
2023/12/28 07:26:43;;;;;;;0.00;0.00;;;12.70;74.60;;;;;;5089139;28;20625;-24
2023/12/28 07:29:13;;;;;;;0.00;0.00;;;12.70;74.60;;;;;;5090591;28;20226;-23
2023/12/28 07:31:45;;;;;;;0.00;0.00;;;12.60;74.60;;;;;;5081930;28;20255;-24
2023/12/28 07:34:15;;;;;;;0.00;0.00;;;12.70;74.60;;;;;;5083941;28;20286;-24
2023/12/28 07:36:43;;;;;;;0.00;0.00;;;12.60;74.50;;;;;;5079116;28;20591;-24
2023/12/28 07:39:11;;;;;;;0.00;0.00;;;12.60;74.70;;;;;;5087341;28;20299;-23
2023/12/28 07:41:40;;;;;;;0.00;0.00;;;12.60;74.70;;;;;;5083026;28;20606;-24
2023/12/28 07:44:10;;;;;;;0.00;0.00;;;12.60;74.70;;;;;;5086733;28;20681;-24
2023/12/28 07:46:39;;;;;;;0.00;0.00;;;12.60;74.60;;;;;;5086203;28;20222;-24
2023/12/28 07:49:09;;;;;;;0.00;0.00;;;12.60;74.50;;;;;;5084406;28;20225;-24
2023/12/28 07:51:36;;;;;;;0.00;0.00;;;12.60;74.60;;;;;;5073594;28;20227;-24
2023/12/28 07:54:03;;;;;;;0.00;0.00;;;12.60;74.60;;;;;;5071251;28;20207;-24
2023/12/28 07:56:31;;;;;;;0.00;0.00;;;12.60;74.50;;;;;;5071966;28;20252;-24
2023/12/28 07:58:58;;;;;;;0.00;0.00;;;12.60;74.50;;;;;;5088118;28;20198;-24
2023/12/28 08:01:27;;;;;;;0.00;0.00;;;12.60;74.60;;;;;;5085745;28;20202;-24
2023/12/28 08:03:55;;;;;;;0.00;0.00;;;12.60;74.60;;;;;;5086681;28;20690;-26
2023/12/28 08:06:25;;;;;;;0.00;0.00;;;12.60;74.50;;;;;;5084572;28;20803;-23
2023/12/28 08:08:59;;;;;;;0.00;0.00;;;12.60;74.70;;;;;;5079614;28;20213;-23
2023/12/28 08:11:29;;;;;;;0.00;0.00;;;12.60;74.50;;;;;;5075329;28;20225;-23
2023/12/28 08:13:56;;;;;;;0.00;0.00;;;12.50;74.50;;;;;;5075276;28;20745;-23
2023/12/28 08:16:28;;;;;;;0.00;0.00;;;12.50;74.50;;;;;;5082977;28;20191;-24
2023/12/28 08:19:01;;;;;;;0.00;0.00;;;12.50;74.50;;;;;;5068587;28;20218;-23
2023/12/28 08:21:30;;;;;;;0.00;0.00;;;12.50;74.50;;;;;;5085108;28;20219;-23
2023/12/28 08:24:00;;;;;;;0.00;0.00;;;12.50;74.50;;;;;;5088734;28;20199;-23
2023/12/28 08:26:27;;;;;;;0.00;0.00;;;12.40;74.50;;;;;;5088243;28;20301;-26
2023/12/28 08:28:54;;;;;;;0.00;0.00;;;12.40;74.60;;;;;;5085339;28;20422;-23
2023/12/28 08:31:24;;;;;;;0.00;0.00;;;12.40;74.60;;;;;;5076574;28;20218;-23
2023/12/28 08:33:53;;;;;;;0.00;0.00;;;12.50;74.70;;;;;;5076777;28;20252;-23
2023/12/28 08:36:28;;;;;;;0.00;0.00;;;12.50;74.70;;;;;;5071214;28;20666;-24
2023/12/28 08:38:58;;;;;;;0.00;0.00;;;12.50;74.60;;;;;;5069133;28;20740;-23
2023/12/28 08:41:30;;;;;;;0.00;0.00;;;12.50;74.70;;;;;;5082418;28;20213;-23
2023/12/28 08:43:57;;;;;;;0.00;0.00;;;12.50;74.70;;;;;;5079387;28;20298;-23
2023/12/28 08:46:24;;;;;;;0.00;0.00;;;12.50;74.80;;;;;;5073657;28;20685;-23
2023/12/28 08:48:52;;;;;;;0.00;0.00;;;12.50;74.80;;;;;;5080671;28;20219;-23
2023/12/28 08:51:20;;;;;;;0.00;0.00;;;12.50;74.70;;;;;;5087756;28;20310;-23
2023/12/28 08:53:50;;;;;;;0.00;0.00;;;12.50;74.70;;;;;;5074483;28;20741;-23
2023/12/28 08:56:21;;;;;;;0.00;0.00;;;12.50;74.80;;;;;;5082567;28;20221;-23
2023/12/28 08:58:50;;;;;;;0.00;0.00;;;12.60;74.90;;;;;;5085652;28;20217;-23
2023/12/28 09:01:25;;;;;;;0.00;0.00;;;12.60;74.80;;;;;;5083918;28;20203;-23
2023/12/28 09:03:54;;;;;;;0.00;0.00;;;12.60;74.80;;;;;;5086795;28;20206;-23
2023/12/28 09:06:24;;;;;;;0.00;0.00;;;12.60;74.90;;;;;;5087083;28;20256;-23
2023/12/28 09:08:54;;;;;;;0.00;0.00;;;12.60;74.80;;;;;;5085513;28;20284;-23
2023/12/28 09:11:21;;;;;;;0.00;0.00;;;12.60;74.80;;;;;;5083773;28;20206;-23
2023/12/28 09:13:51;;;;;;;0.00;0.00;;;12.60;74.90;;;;;;5076847;28;20657;-23
2023/12/28 09:16:23;;;;;;;0.00;0.00;;;12.60;74.90;;;;;;5079992;28;20192;-22
2023/12/28 09:18:51;;;;;;;0.00;0.00;;;12.60;74.70;;;;;;5074529;28;20546;-23
2023/12/28 09:21:20;;;;;;;0.00;0.00;;;12.70;74.70;;;;;;5067432;28;20200;-22
2023/12/28 09:23:50;;;;;;;0.00;0.00;;;12.70;74.70;;;;;;5074129;28;20664;-23
2023/12/28 09:26:18;;;;;;;0.00;0.00;;;12.70;74.80;;;;;;5078721;28;20205;-23
2023/12/28 09:28:47;;;;;;;0.00;0.00;;;12.70;74.80;;;;;;5068186;28;20234;-40
2023/12/28 09:31:16;;;;;;;0.00;0.00;;;12.70;74.80;;;;;;5073639;28;20670;-40
2023/12/28 09:33:46;;;;;;;0.00;0.00;;;12.70;74.70;;;;;;5069993;28;20638;-40
2023/12/28 09:36:16;;;;;;;0.00;0.00;;;12.70;74.80;;;;;;5073198;28;20296;-42
2023/12/28 09:38:46;;;;;;;0.00;0.00;;;12.70;74.70;;;;;;5087149;28;20222;-41
2023/12/28 09:41:15;;;;;;;0.00;0.00;;;12.70;74.60;;;;;;5069039;28;20660;-40
2023/12/28 09:44:08;;;;;;;0.00;0.00;;;12.70;74.60;;;;;;5078187;28;20578;-41
2023/12/28 09:46:38;;;;;;;0.00;0.00;;;12.70;74.70;;;;;;5091188;28;20748;-41
2023/12/28 09:49:09;;;;;;;0.00;0.00;;;12.80;74.50;;;;;;5068399;28;20242;-40
2023/12/28 09:51:36;;;;;;;0.00;0.00;;;12.70;74.40;;;;;;5072064;28;20207;-40
2023/12/28 09:54:04;;;;;;;0.00;0.00;;;12.70;74.60;;;;;;5088355;28;20210;-41
2023/12/28 09:56:33;;;;;;;0.00;0.00;;;12.80;74.70;;;;;;5088228;28;20211;-41
2023/12/28 09:59:03;;;;;;;0.00;0.00;;;12.80;74.70;;;;;;5088480;28;20199;-41
2023/12/28 10:01:31;;;;;;;0.00;0.00;;;12.80;74.70;;;;;;5069380;28;20303;-41
2023/12/28 10:04:03;;;;;;;0.00;0.00;;;12.80;74.80;;;;;;5081498;28;20216;-42
2023/12/28 10:06:30;;;;;;;0.00;0.00;;;12.80;74.80;;;;;;5080570;28;20771;-42
2023/12/28 10:09:00;;;;;;;0.00;0.00;;;12.80;74.70;;;;;;5085899;28;20239;-41
2023/12/28 10:11:27;;;;;;;0.00;0.00;;;12.90;74.80;;;;;;5087949;28;20662;-42
2023/12/28 10:13:55;;;;;;;0.00;0.00;;;12.90;74.70;;;;;;5063921;28;20203;-43
2023/12/28 10:16:26;;;;;;;0.00;0.00;;;12.90;74.80;;;;;;5090327;28;20284;-41
2023/12/28 10:18:59;;;;;;;0.00;0.00;;;13.00;74.80;;;;;;5075748;28;20284;-41
2023/12/28 10:21:26;;;;;;;0.00;0.00;;;13.00;74.70;;;;;;5064662;28;20625;-43
2023/12/28 10:23:54;;;;;;;0.00;0.00;;;13.00;74.70;;;;;;5086525;28;20285;-40
2023/12/28 10:26:29;;;;;;;0.00;0.00;;;13.00;74.70;;;;;;5078308;28;20196;-41
2023/12/28 10:29:05;;;;;;;0.00;0.00;;;13.10;74.90;;;;;;5073429;28;20211;-41
2023/12/28 10:31:35;;;;;;;0.00;0.00;;;13.10;74.90;;;;;;5086543;28;20780;-42
2023/12/28 10:34:05;;;;;;;0.00;0.00;;;13.10;74.70;;;;;;5089019;28;20206;-41
2023/12/28 10:36:36;;;;;;;0.00;0.00;;;13.10;74.60;;;;;;5087981;28;20195;-41
2023/12/28 10:39:09;;;;;;;0.00;0.00;;;13.10;74.40;;;;;;5085970;28;20199;-42
2023/12/28 10:41:39;;;;;;;0.00;0.00;;;13.20;74.60;;;;;;5086183;28;20234;-42
2023/12/28 10:44:08;;;;;;;0.00;0.00;;;13.20;74.70;;;;;;5086793;28;20239;-41
2023/12/28 10:46:44;;;;;;;0.00;0.00;;;13.20;74.70;;;;;;5071104;28;20203;-43
2023/12/28 10:49:16;;;;;;;0.00;0.00;;;13.20;74.70;;;;;;5065514;28;20233;-41
2023/12/28 10:51:46;;;;;;;0.00;0.00;;;13.30;74.80;;;;;;5081418;28;20211;-42
2023/12/28 10:54:31;;;;;;;0.00;0.00;;;13.30;74.90;;;;;;5084602;28;20200;-40
2023/12/28 10:57:08;;;;;;;0.00;0.00;;;13.30;74.70;;;;;;5080170;28;20255;-42
2023/12/28 11:00:06;;;;;;;0.00;0.00;;;13.40;74.80;;;;;;5085292;28;20218;-41
2023/12/28 11:02:45;;;;;;;0.00;0.00;;;13.40;74.80;;;;;;5067339;28;20286;-41
2023/12/28 11:05:17;;;;;;;0.00;0.00;;;13.40;74.70;;;;;;5069532;28;20231;-41
2023/12/28 11:07:45;;;;;;;0.00;0.00;;;13.40;74.70;;;;;;5082172;28;20226;-41
2023/12/28 11:10:17;;;;;;;0.00;0.00;;;13.40;74.70;;;;;;5087537;28;20233;-42
2023/12/28 11:12:48;;;;;;;0.00;0.00;;;13.40;74.70;;;;;;5088416;28;20198;-41
2023/12/28 11:15:23;;;;;;;0.00;0.00;;;13.40;74.60;;;;;;5087909;28;20203;-41
2023/12/28 11:17:51;;;;;;;0.00;0.00;;;13.50;74.70;;;;;;5073725;28;21022;-43
2023/12/28 11:20:22;;;;;;;0.00;0.00;;;13.50;74.80;;;;;;5051128;28;20881;-23
2023/12/28 11:22:52;;;;;;;0.00;0.00;;;13.50;74.60;;;;;;5082962;28;20207;-23
2023/12/28 11:25:21;;;;;;;0.00;0.00;;;13.50;74.50;;;;;;5068801;28;20203;-23
2023/12/28 11:27:53;;;;;;;0.00;0.00;;;13.50;74.60;;;;;;5069223;28;20266;-26
2023/12/28 11:30:21;;;;;;;0.00;0.00;;;13.60;74.50;;;;;;5070587;28;20673;-23
2023/12/28 11:32:50;;;;;;;0.00;0.00;;;13.60;74.60;;;;;;5069236;28;20199;-23
2023/12/28 11:35:38;;;;;;;0.00;0.00;;;13.60;74.60;;;;;;5070920;28;20551;-23
2023/12/28 11:38:14;;;;;;;0.00;0.00;;;13.70;74.10;;;;;;5076964;28;20212;-23
2023/12/28 11:40:46;;;;;;;0.00;0.00;;;13.70;74.50;;;;;;5069813;28;20660;-23
2023/12/28 11:43:21;;;;;;;0.00;0.00;;;13.70;74.60;;;;;;5073416;28;20738;-23
2023/12/28 11:45:55;;;;;;;0.00;0.00;;;13.70;75.20;;;;;;5072182;28;20202;-23
2023/12/28 11:48:27;;;;;;;0.00;0.00;;;13.70;74.40;;;;;;5082065;28;20744;-23
2023/12/28 11:50:57;;;;;;;0.00;0.00;;;13.70;74.40;;;;;;5081689;28;20228;-23
2023/12/28 11:53:25;;;;;;;0.00;0.00;;;13.70;74.00;;;;;;5086694;28;20238;-23
2023/12/28 11:56:09;;;;;;;0.00;0.00;;;13.70;74.30;;;;;;5078397;28;20679;-23
2023/12/28 11:58:38;;;;;;;0.00;0.00;;;13.70;74.50;;;;;;5087993;28;20537;-23
2023/12/28 12:01:09;;;;;;;0.00;0.00;;;13.80;74.50;;;;;;5077234;28;20297;-23
2023/12/28 12:03:39;;;;;;;0.00;0.00;;;13.80;74.70;;;;;;5077035;28;20252;-23
2023/12/28 12:06:06;;;;;;;0.00;0.00;;;13.80;74.00;;;;;;5085040;28;20238;-23
2023/12/28 12:08:36;;;;;;;0.00;0.00;;;13.80;74.20;;;;;;5078460;28;20187;-23
2023/12/28 12:11:06;;;;;;;0.00;0.00;;;13.80;73.80;;;;;;5072141;28;20218;-23
2023/12/28 12:13:42;;;;;;;0.00;0.00;;;13.80;74.20;;;;;;5078900;28;20210;-23
2023/12/28 12:16:09;;;;;;;0.00;0.00;;;13.90;74.00;;;;;;5078827;28;20203;-23
2023/12/28 12:18:39;;;;;;;0.00;0.00;;;13.80;74.20;;;;;;5066765;28;20915;-23
2023/12/28 12:21:09;;;;;;;0.00;0.00;;;13.90;74.30;;;;;;5067499;28;20223;-23
2023/12/28 12:23:43;;;;;;;0.00;0.00;;;13.90;74.10;;;;;;5075028;28;20232;-23
2023/12/28 12:26:18;;;;;;;0.00;0.00;;;13.90;73.90;;;;;;5079315;28;20211;-23
2023/12/28 12:28:48;;;;;;;0.00;0.00;;;13.90;73.70;;;;;;5076277;28;20210;-23
2023/12/28 12:31:15;;;;;;;0.00;0.00;;;13.90;74.00;;;;;;5052430;28;20297;-23
2023/12/28 12:33:46;;;;;;;0.00;0.00;;;13.90;73.80;;;;;;5083997;28;20193;-23
2023/12/28 12:36:21;;;;;;;0.00;0.00;;;13.90;74.00;;;;;;5087381;28;20253;-23
2023/12/28 12:38:49;;;;;;;0.00;0.00;;;13.90;73.80;;;;;;5086940;28;20218;-23
2023/12/28 12:41:17;;;;;;;0.00;0.00;;;13.90;73.70;;;;;;5085169;28;20681;-23
2023/12/28 12:43:45;;;;;;;0.00;0.00;;;13.90;74.00;;;;;;5084589;28;20926;-26
2023/12/28 12:46:15;;;;;;;0.00;0.00;;;13.90;73.70;;;;;;5082437;28;20187;-26
2023/12/28 12:48:57;;;;;;;0.00;0.00;;;13.90;73.40;;;;;;5069221;28;20202;-24
2023/12/28 12:51:26;;;;;;;0.00;0.00;;;13.90;73.80;;;;;;5087498;28;20233;-24
2023/12/28 12:53:57;;;;;;;0.00;0.00;;;13.90;73.40;;;;;;5086151;28;20179;-24
2023/12/28 12:56:27;;;;;;;0.00;0.00;;;13.90;73.70;;;;;;5082039;28;20832;-24
2023/12/28 12:58:57;;;;;;;0.00;0.00;;;13.90;73.40;;;;;;5087313;28;20202;-24
2023/12/28 13:01:25;;;;;;;0.00;0.00;;;13.90;73.10;;;;;;5086538;28;20207;-24